createdAt,value
2019-06-25T00:00:04.146Z,14.27
2019-06-25T00:02:35.877Z,12.40
2019-06-25T00:05:09.830Z,14.73
2019-06-25T00:07:42.315Z,12.93
2019-06-25T00:10:15.230Z,14.93
2019-06-25T00:12:47.331Z,14.53
2019-06-25T00:15:19.738Z,13.23
2019-06-25T00:17:52.384Z,14.00
2019-06-25T00:20:25.352Z,13.67
2019-06-25T00:22:57.609Z,15.30
2019-06-25T00:25:30.630Z,13.93
2019-06-25T00:28:03.219Z,14.13
2019-06-25T00:30:36.105Z,15.30
2019-06-25T00:33:07.899Z,15.13
2019-06-25T00:35:42.040Z,12.60
2019-06-25T00:38:14.058Z,13.77
2019-06-25T00:40:46.158Z,13.73
2019-06-25T00:43:18.386Z,12.50
2019-06-25T00:45:50.703Z,14.87
2019-06-25T00:48:23.430Z,15.23
2019-06-25T00:50:55.898Z,14.87
2019-06-25T00:53:28.620Z,14.37
2019-06-25T00:56:00.772Z,13.30
2019-06-25T00:58:32.387Z,13.47
2019-06-25T01:01:03.308Z,13.63
2019-06-25T01:03:38.781Z,13.50
2019-06-25T01:06:09.592Z,13.33
2019-06-25T01:08:40.438Z,12.90
2019-06-25T01:11:11.525Z,13.50
2019-06-25T01:13:42.869Z,12.93
2019-06-25T01:16:14.590Z,13.63
2019-06-25T01:18:46.208Z,14.73
2019-06-25T01:21:17.575Z,12.53
2019-06-25T01:23:49.062Z,13.40
2019-06-25T01:26:20.401Z,13.93
2019-06-25T01:28:51.357Z,13.50
2019-06-25T01:31:22.793Z,14.53
2019-06-25T01:33:54.052Z,13.90
2019-06-25T01:36:25.117Z,13.43
2019-06-25T01:38:57.191Z,12.90
2019-06-25T01:41:28.874Z,12.50
2019-06-25T01:44:00.131Z,12.10
2019-06-25T01:46:31.596Z,12.70
2019-06-25T01:49:03.172Z,13.80
2019-06-25T01:51:36.483Z,14.97
2019-06-25T01:54:07.917Z,13.90
2019-06-25T01:56:38.659Z,14.40
2019-06-25T01:59:09.714Z,12.57
2019-06-25T02:01:40.955Z,12.93
2019-06-25T02:04:12.387Z,13.17
2019-06-25T02:06:44.000Z,13.30
2019-06-25T02:09:15.532Z,13.90
2019-06-25T02:11:46.800Z,13.77
2019-06-25T02:14:17.904Z,14.53
2019-06-25T02:16:49.548Z,14.13
2019-06-25T02:19:20.468Z,14.07
2019-06-25T02:21:51.864Z,15.10
2019-06-25T02:24:22.656Z,15.37
2019-06-25T02:26:54.258Z,15.43
2019-06-25T02:29:25.371Z,15.33
2019-06-25T02:31:57.418Z,15.73
2019-06-25T02:34:28.616Z,14.90
2019-06-25T02:36:59.999Z,13.93
2019-06-25T02:39:31.337Z,14.20
2019-06-25T02:42:02.835Z,15.10
2019-06-25T02:44:34.380Z,16.00
2019-06-25T02:47:05.855Z,15.80
2019-06-25T02:49:37.093Z,15.17
2019-06-25T02:52:08.904Z,13.20
2019-06-25T02:54:40.758Z,14.70
2019-06-25T02:57:12.233Z,14.67
2019-06-25T02:59:43.162Z,14.97
2019-06-25T03:02:14.557Z,16.07
2019-06-25T03:04:45.994Z,15.03
2019-06-25T03:07:17.066Z,14.97
2019-06-25T03:09:48.397Z,14.97
2019-06-25T03:12:19.335Z,14.90
2019-06-25T03:14:50.810Z,15.70
2019-06-25T03:17:22.476Z,16.03
2019-06-25T03:19:53.398Z,14.57
2019-06-25T03:22:24.561Z,15.20
2019-06-25T03:24:55.944Z,16.20
2019-06-25T03:27:27.488Z,17.57
2019-06-25T03:29:58.870Z,16.40
2019-06-25T03:32:29.997Z,14.30
2019-06-25T03:35:01.682Z,13.67
2019-06-25T03:37:33.040Z,15.70
2019-06-25T03:40:05.375Z,15.80
2019-06-25T03:42:37.268Z,14.23
2019-06-25T03:45:09.054Z,14.60
2019-06-25T03:47:39.751Z,15.57
2019-06-25T03:50:11.701Z,14.90
2019-06-25T03:52:42.488Z,14.80
2019-06-25T03:55:14.825Z,15.93
2019-06-25T03:57:46.070Z,15.50
2019-06-25T04:00:18.831Z,16.10
2019-06-25T04:02:49.730Z,15.70
2019-06-25T04:05:21.025Z,14.67
2019-06-25T04:07:52.388Z,14.63
2019-06-25T04:10:23.639Z,14.20
2019-06-25T04:12:55.110Z,13.63
2019-06-25T04:15:26.361Z,14.93
2019-06-25T04:17:57.187Z,14.70
2019-06-25T04:20:28.789Z,14.80
2019-06-25T04:22:59.903Z,15.67
2019-06-25T04:25:33.526Z,15.70
2019-06-25T04:28:04.229Z,15.43
2019-06-25T04:30:35.487Z,17.13
2019-06-25T04:33:06.309Z,16.40
2019-06-25T04:35:37.355Z,15.47
2019-06-25T04:38:09.126Z,16.60
2019-06-25T04:40:40.611Z,16.37
2019-06-25T04:43:12.069Z,14.80
2019-06-25T04:45:43.325Z,14.90
2019-06-25T04:48:14.469Z,16.87
2019-06-25T04:50:45.722Z,16.00
2019-06-25T04:53:17.310Z,15.23
2019-06-25T04:55:49.570Z,15.53
2019-06-25T04:58:21.534Z,16.40
2019-06-25T05:00:52.549Z,14.87
2019-06-25T05:03:23.916Z,15.60
2019-06-25T05:05:55.801Z,16.03
2019-06-25T05:08:26.848Z,15.07
2019-06-25T05:10:58.206Z,16.47
2019-06-25T05:13:29.882Z,15.10
2019-06-25T05:16:02.947Z,15.60
2019-06-25T05:18:34.824Z,16.00
2019-06-25T05:21:06.319Z,14.60
2019-06-25T05:23:38.986Z,15.20
2019-06-25T05:26:11.498Z,15.70
2019-06-25T05:28:43.270Z,15.70
2019-06-25T05:31:14.833Z,15.07
2019-06-25T05:33:45.868Z,14.83
2019-06-25T05:36:35.210Z,15.20
2019-06-25T05:39:08.283Z,14.77
2019-06-25T05:41:42.482Z,13.90
2019-06-25T05:44:14.062Z,15.17
2019-06-25T05:46:45.272Z,13.00
2019-06-25T05:49:16.915Z,18.00
2019-06-25T05:51:48.139Z,15.13
2019-06-25T05:54:19.975Z,13.40
2019-06-25T05:56:51.816Z,11.47
2019-06-25T05:59:22.598Z,14.07
2019-06-25T06:01:54.860Z,14.70
2019-06-25T06:04:25.918Z,14.07
2019-06-25T06:06:57.669Z,14.47
2019-06-25T06:09:30.309Z,14.00
2019-06-25T06:12:02.310Z,14.40
2019-06-25T06:14:33.277Z,12.70
2019-06-25T06:17:06.630Z,12.77
2019-06-25T06:19:39.155Z,12.73
2019-06-25T06:22:11.078Z,13.87
2019-06-25T06:24:42.525Z,13.10
2019-06-25T06:27:15.089Z,13.90
2019-06-25T06:29:46.380Z,12.80
2019-06-25T06:32:18.652Z,14.80
2019-06-25T06:34:50.199Z,13.70
2019-06-25T06:37:22.314Z,12.70
2019-06-25T06:39:55.268Z,14.97
2019-06-25T06:42:26.527Z,13.40
2019-06-25T06:44:58.951Z,12.43
2019-06-25T06:47:30.948Z,12.67
2019-06-25T06:50:02.528Z,12.90
2019-06-25T06:52:33.651Z,14.50
2019-06-25T06:55:05.268Z,13.90
2019-06-25T06:57:36.945Z,14.17
2019-06-25T07:00:09.264Z,13.67
2019-06-25T07:02:41.036Z,12.83
2019-06-25T07:05:15.292Z,14.60
2019-06-25T07:07:46.862Z,16.60
2019-06-25T07:10:18.520Z,14.00
2019-06-25T07:12:50.642Z,17.50
2019-06-25T07:15:22.632Z,15.80
2019-06-25T07:17:54.555Z,15.00
2019-06-25T07:20:33.395Z,15.03
2019-06-25T07:22:59.210Z,12.93
2019-06-25T07:25:30.993Z,15.43
2019-06-25T07:28:02.866Z,13.60
2019-06-25T07:30:33.913Z,15.00
2019-06-25T07:33:05.569Z,15.80
2019-06-25T07:35:37.423Z,14.10
2019-06-25T07:38:09.044Z,15.47
2019-06-25T07:40:41.049Z,16.77
2019-06-25T07:43:12.783Z,15.60
2019-06-25T07:45:44.625Z,16.90
2019-06-25T07:48:16.399Z,16.67
2019-06-25T07:50:48.112Z,15.30
2019-06-25T07:53:20.081Z,16.17
2019-06-25T07:55:52.297Z,15.47
2019-06-25T07:58:25.033Z,15.97
2019-06-25T08:00:57.042Z,16.40
2019-06-25T08:03:32.181Z,15.50
2019-06-25T08:06:04.472Z,15.27
2019-06-25T08:08:36.825Z,15.47
2019-06-25T08:11:10.147Z,14.90
2019-06-25T08:13:41.871Z,15.50
2019-06-25T08:16:14.088Z,16.20
2019-06-25T08:18:46.627Z,15.90
2019-06-25T08:21:18.384Z,16.70
2019-06-25T08:23:51.075Z,16.30
2019-06-25T08:26:23.223Z,16.13
2019-06-25T08:28:55.428Z,16.83
2019-06-25T08:31:27.543Z,15.97
2019-06-25T08:34:00.073Z,16.17
2019-06-25T08:36:33.049Z,16.47
2019-06-25T08:39:06.648Z,16.10
2019-06-25T08:41:38.983Z,16.27
2019-06-25T08:44:11.910Z,15.83
2019-06-25T08:46:44.143Z,15.75
2019-06-25T08:49:16.251Z,17.37
2019-06-25T08:51:48.812Z,19.23
2019-06-25T08:54:21.205Z,16.77
2019-06-25T08:56:53.824Z,17.25
2019-06-25T08:59:26.346Z,16.93
2019-06-25T09:01:58.110Z,17.00
2019-06-25T09:04:30.299Z,16.37
2019-06-25T09:07:03.105Z,16.75
2019-06-25T09:09:35.943Z,15.95
2019-06-25T09:12:08.425Z,16.05
2019-06-25T09:14:40.979Z,16.10
2019-06-25T09:17:16.443Z,15.15
2019-06-25T09:19:50.508Z,16.73
2019-06-25T09:22:22.998Z,16.23
2019-06-25T09:24:56.074Z,16.20
2019-06-25T09:27:28.619Z,16.10
2019-06-25T09:30:01.383Z,15.80
2019-06-25T09:32:35.268Z,13.80
2019-06-25T09:35:15.023Z,16.07
2019-06-25T09:37:43.509Z,14.68
2019-06-25T09:40:13.437Z,13.93
2019-06-25T09:42:42.963Z,12.40
2019-06-25T09:45:13.069Z,13.43
2019-06-25T09:47:47.349Z,14.00
2019-06-25T09:50:19.607Z,16.10
2019-06-25T09:52:52.880Z,13.50
2019-06-25T09:55:25.084Z,14.13
2019-06-25T09:57:57.831Z,13.58
2019-06-25T10:00:39.825Z,14.68
2019-06-25T10:03:12.318Z,14.60
2019-06-25T10:05:44.616Z,13.38
2019-06-25T10:08:16.293Z,13.48
2019-06-25T10:10:48.866Z,14.10
2019-06-25T10:13:22.309Z,14.45
2019-06-25T10:15:55.118Z,13.35
2019-06-25T10:18:43.399Z,13.88
2019-06-25T10:21:01.232Z,14.73
2019-06-25T10:23:33.753Z,15.72
2019-06-25T10:26:06.062Z,13.58
2019-06-25T10:28:39.476Z,16.87
2019-06-25T10:31:11.998Z,14.65
2019-06-25T10:33:45.262Z,14.95
2019-06-25T10:36:20.141Z,14.80
2019-06-25T10:38:51.997Z,14.50
2019-06-25T10:41:23.262Z,16.17
2019-06-25T10:43:55.178Z,15.65
2019-06-25T10:46:26.958Z,13.70
2019-06-25T10:48:58.865Z,15.18
2019-06-25T10:51:30.531Z,13.50
2019-06-25T10:54:01.555Z,14.65
2019-06-25T10:56:32.614Z,13.43
2019-06-25T10:59:04.508Z,13.80
2019-06-25T11:01:37.424Z,14.43
2019-06-25T11:04:09.100Z,15.53
2019-06-25T11:06:56.398Z,14.95
2019-06-25T11:09:13.883Z,16.15
2019-06-25T11:11:45.921Z,16.02
2019-06-25T11:14:17.673Z,14.90
2019-06-25T11:16:48.938Z,13.48
2019-06-25T11:19:20.301Z,14.30
2019-06-25T11:21:52.080Z,14.33
2019-06-25T11:24:23.961Z,12.75
2019-06-25T11:26:55.591Z,13.45
2019-06-25T11:29:27.125Z,14.13
2019-06-25T11:31:59.011Z,13.00
2019-06-25T11:34:30.055Z,12.65
2019-06-25T11:37:01.478Z,13.35
2019-06-25T11:39:32.467Z,12.85
2019-06-25T11:42:04.244Z,12.98
2019-06-25T11:44:35.111Z,12.43
2019-06-25T11:47:06.199Z,13.93
2019-06-25T11:49:37.079Z,12.50
2019-06-25T11:52:10.835Z,13.88
2019-06-25T11:54:43.283Z,14.20
2019-06-25T11:57:16.228Z,11.85
2019-06-25T11:59:48.769Z,13.20
2019-06-25T12:02:21.140Z,12.25
2019-06-25T12:04:53.835Z,12.82
2019-06-25T12:07:26.411Z,13.18
2019-06-25T12:09:59.440Z,13.93
2019-06-25T12:12:32.024Z,12.65
2019-06-25T12:15:05.044Z,12.88
2019-06-25T12:17:37.561Z,12.65
2019-06-25T12:20:09.682Z,12.93
2019-06-25T12:22:42.540Z,13.20
2019-06-25T12:25:15.067Z,12.07
2019-06-25T12:27:47.500Z,12.03
2019-06-25T12:30:20.140Z,12.13
2019-06-25T12:32:52.577Z,11.90
2019-06-25T12:35:24.873Z,13.58
2019-06-25T12:37:58.152Z,13.30
2019-06-25T12:40:28.867Z,13.13
2019-06-25T12:42:59.844Z,12.33
2019-06-25T12:45:33.025Z,13.32
2019-06-25T12:48:03.695Z,12.73
2019-06-25T12:50:34.927Z,14.20
2019-06-25T12:53:06.551Z,13.43
2019-06-25T12:55:37.674Z,14.28
2019-06-25T12:58:08.920Z,14.10
2019-06-25T13:00:40.048Z,13.85
2019-06-25T13:03:11.841Z,13.20
2019-06-25T13:05:43.306Z,11.70
2019-06-25T13:08:17.744Z,12.95
2019-06-25T13:10:49.205Z,13.85
2019-06-25T13:13:21.100Z,13.48
2019-06-25T13:15:52.974Z,12.68
2019-06-25T13:18:23.829Z,11.88
2019-06-25T13:20:56.594Z,12.65
2019-06-25T13:23:30.911Z,14.45
2019-06-25T13:26:02.807Z,14.30
2019-06-25T13:28:34.065Z,15.83
2019-06-25T13:31:05.431Z,18.12
2019-06-25T13:33:37.748Z,15.20
2019-06-25T13:36:08.773Z,14.53
2019-06-25T13:38:40.794Z,13.75
2019-06-25T13:41:12.492Z,13.32
2019-06-25T13:43:44.575Z,14.13
2019-06-25T13:46:15.173Z,12.98
2019-06-25T13:48:46.650Z,12.03
2019-06-25T13:51:18.634Z,13.60
2019-06-25T13:53:50.359Z,14.15
2019-06-25T13:56:21.662Z,13.18
2019-06-25T13:58:53.598Z,13.85
2019-06-25T14:01:25.188Z,14.50
2019-06-25T14:03:56.807Z,16.50
2019-06-25T14:06:28.441Z,13.67
2019-06-25T14:08:59.987Z,14.53
2019-06-25T14:11:32.625Z,14.50
2019-06-25T14:14:04.714Z,14.20
2019-06-25T14:16:36.429Z,13.63
2019-06-25T14:19:08.301Z,15.03
2019-06-25T14:21:39.475Z,15.00
2019-06-25T14:24:11.139Z,14.43
2019-06-25T14:26:42.813Z,13.67
2019-06-25T14:29:14.486Z,14.20
2019-06-25T14:31:45.849Z,15.33
2019-06-25T14:34:17.111Z,16.43
2019-06-25T14:36:49.098Z,14.27
2019-06-25T14:39:20.241Z,15.30
2019-06-25T14:41:51.203Z,14.60
2019-06-25T14:44:22.558Z,17.30
2019-06-25T14:46:53.384Z,15.80
2019-06-25T14:49:28.463Z,15.30
2019-06-25T14:52:00.251Z,15.53
2019-06-25T14:54:31.521Z,15.27
2019-06-25T14:57:03.537Z,15.73
2019-06-25T14:59:35.294Z,16.10
2019-06-25T15:02:06.340Z,16.73
2019-06-25T15:04:38.031Z,15.97
2019-06-25T15:07:09.616Z,15.50
2019-06-25T15:09:46.665Z,15.60
2019-06-25T15:12:14.293Z,15.83
2019-06-25T15:14:46.245Z,16.53
2019-06-25T15:17:17.910Z,16.63
2019-06-25T15:19:49.306Z,16.40
2019-06-25T15:22:20.967Z,15.53
2019-06-25T15:24:51.984Z,15.97
2019-06-25T15:27:23.682Z,16.97
2019-06-25T15:29:55.499Z,17.10
2019-06-25T15:32:30.427Z,16.60
2019-06-25T15:35:00.164Z,16.83
2019-06-25T15:37:31.330Z,16.97
2019-06-25T15:40:02.702Z,15.97
2019-06-25T15:42:34.460Z,16.50
2019-06-25T15:45:07.031Z,16.30
2019-06-25T15:47:39.058Z,16.20
2019-06-25T15:50:11.322Z,16.07
2019-06-25T15:52:43.520Z,16.40
2019-06-25T15:55:15.046Z,17.70
2019-06-25T15:57:46.052Z,17.37
2019-06-25T16:00:18.961Z,18.27
2019-06-25T16:02:49.898Z,16.60
2019-06-25T16:05:21.364Z,16.10
2019-06-25T16:07:52.774Z,16.97
2019-06-25T16:10:24.139Z,17.20
2019-06-25T16:12:55.094Z,16.80
2019-06-25T16:15:40.749Z,16.10
2019-06-25T16:18:01.022Z,15.60
2019-06-25T16:20:32.526Z,16.20
2019-06-25T16:23:03.994Z,15.70
2019-06-25T16:25:37.248Z,16.50
2019-06-25T16:28:07.984Z,14.60
2019-06-25T16:30:39.078Z,15.97
2019-06-25T16:33:10.169Z,17.20
2019-06-25T16:35:42.174Z,16.90
2019-06-25T16:38:30.044Z,15.50
2019-06-25T16:40:48.399Z,17.13
2019-06-25T16:43:22.452Z,17.10
2019-06-25T16:46:00.162Z,16.90
2019-06-25T16:48:25.394Z,16.30
2019-06-25T16:50:57.907Z,16.27
2019-06-25T16:53:30.187Z,16.77
2019-06-25T16:56:02.589Z,16.07
2019-06-25T16:58:35.832Z,16.47
2019-06-25T17:01:09.189Z,15.83
2019-06-25T17:03:44.468Z,16.47
2019-06-25T17:06:15.674Z,18.03
2019-06-25T17:08:48.694Z,24.97
2019-06-25T17:11:21.811Z,16.53
2019-06-25T17:13:53.988Z,15.50
2019-06-25T17:16:26.458Z,17.53
2019-06-25T17:18:59.023Z,16.70
2019-06-25T17:21:31.423Z,15.83
2019-06-25T17:24:07.203Z,15.43
2019-06-25T17:26:37.619Z,16.90
2019-06-25T17:29:10.068Z,16.93
2019-06-25T17:31:41.755Z,16.97
2019-06-25T17:34:14.150Z,16.97
2019-06-25T17:36:46.468Z,16.07
2019-06-25T17:39:19.108Z,16.80
2019-06-25T17:41:51.114Z,16.23
2019-06-25T17:44:26.844Z,16.77
2019-06-25T17:46:59.579Z,16.40
2019-06-25T17:49:31.615Z,16.63
2019-06-25T17:52:04.109Z,16.60
2019-06-25T17:54:36.715Z,16.80
2019-06-25T17:57:09.264Z,17.57
2019-06-25T17:59:42.120Z,17.13
2019-06-25T18:02:14.633Z,17.50
2019-06-25T18:04:46.971Z,17.47
2019-06-25T18:07:21.039Z,20.97
2019-06-25T18:10:06.607Z,16.70
2019-06-25T18:12:26.640Z,17.10
2019-06-25T18:14:58.935Z,16.30
2019-06-25T18:17:30.903Z,16.83
2019-06-25T18:20:03.187Z,17.10
2019-06-25T18:22:35.501Z,16.17
2019-06-25T18:25:07.753Z,17.30
2019-06-25T18:27:40.130Z,15.93
2019-06-25T18:30:13.125Z,17.33
2019-06-25T18:32:45.261Z,15.80
2019-06-25T18:35:18.115Z,14.30
2019-06-25T18:37:50.457Z,15.53
2019-06-25T18:40:24.483Z,15.80
2019-06-25T18:42:57.352Z,14.47
2019-06-25T18:45:29.671Z,15.40
2019-06-25T18:48:02.184Z,15.70
2019-06-25T18:50:35.596Z,16.93
2019-06-25T18:53:08.188Z,16.10
2019-06-25T18:55:41.189Z,16.47
2019-06-25T18:58:13.661Z,17.07
2019-06-25T19:00:46.782Z,15.50
2019-06-25T19:03:20.292Z,16.43
2019-06-25T19:05:53.428Z,15.80
2019-06-25T19:08:26.956Z,17.10
2019-06-25T19:10:59.924Z,17.87
2019-06-25T19:13:33.423Z,17.20
2019-06-25T19:16:06.483Z,17.10
2019-06-25T19:18:39.427Z,15.47
2019-06-25T19:21:12.402Z,16.20
2019-06-25T19:23:44.972Z,15.30
2019-06-25T19:26:18.630Z,16.53
2019-06-25T19:28:51.587Z,15.80
2019-06-25T19:31:25.092Z,17.57
2019-06-25T19:33:58.059Z,17.30
2019-06-25T19:36:30.710Z,17.00
2019-06-25T19:39:04.086Z,18.43
2019-06-25T19:41:37.354Z,18.80
2019-06-25T19:44:10.197Z,17.83
2019-06-25T19:46:43.344Z,17.20
2019-06-25T19:49:17.191Z,17.90
2019-06-25T19:51:50.152Z,17.13
2019-06-25T19:54:23.954Z,17.20
2019-06-25T19:56:57.574Z,17.60
2019-06-25T19:59:30.031Z,17.70
2019-06-25T20:02:03.806Z,16.83
2019-06-25T20:04:36.411Z,18.27
2019-06-25T20:07:09.842Z,18.30
2019-06-25T20:09:43.196Z,17.50
2019-06-25T20:12:16.724Z,18.27
2019-06-25T20:14:50.538Z,17.73
2019-06-25T20:17:23.591Z,18.27
2019-06-25T20:19:57.510Z,16.90
2019-06-25T20:22:31.377Z,21.20
2019-06-25T20:25:04.639Z,18.97
2019-06-25T20:27:37.350Z,19.93
2019-06-25T20:30:11.174Z,17.00
2019-06-25T20:32:44.227Z,18.23
2019-06-25T20:35:17.192Z,16.40
2019-06-25T20:37:50.996Z,16.90
2019-06-25T20:40:23.433Z,17.60
2019-06-25T20:42:56.145Z,17.27
2019-06-25T20:45:29.879Z,17.47
2019-06-25T20:48:02.597Z,17.00
2019-06-25T20:50:35.921Z,17.70
2019-06-25T20:53:08.380Z,17.30
2019-06-25T20:55:41.511Z,17.10
2019-06-25T20:58:14.465Z,16.90
2019-06-25T21:00:47.434Z,17.40
2019-06-25T21:03:20.087Z,16.50
2019-06-25T21:05:52.666Z,18.00
2019-06-25T21:08:24.450Z,18.70
2019-06-25T21:10:56.971Z,17.80
2019-06-25T21:13:29.989Z,21.30
2019-06-25T21:16:02.713Z,20.40
2019-06-25T21:18:35.261Z,18.33
2019-06-25T21:21:07.771Z,18.90
2019-06-25T21:23:54.673Z,18.20
2019-06-25T21:26:14.482Z,18.13
2019-06-25T21:28:46.472Z,16.50
2019-06-25T21:31:19.900Z,16.83
2019-06-25T21:33:52.700Z,17.63
2019-06-25T21:36:24.665Z,18.27
2019-06-25T21:38:56.868Z,17.60
2019-06-25T21:41:29.670Z,18.17
2019-06-25T21:44:01.957Z,18.50
2019-06-25T21:46:34.587Z,17.70
2019-06-25T21:49:10.155Z,22.00
2019-06-25T21:51:42.299Z,17.10
2019-06-25T21:54:14.661Z,18.43
2019-06-25T21:56:47.378Z,17.20
2019-06-25T21:59:20.509Z,17.70
2019-06-25T22:01:53.889Z,18.17
2019-06-25T22:04:26.833Z,16.70
2019-06-25T22:06:59.273Z,18.03
2019-06-25T22:09:31.785Z,17.83
2019-06-25T22:12:17.154Z,18.80
2019-06-25T22:14:38.637Z,17.20
2019-06-25T22:17:10.904Z,19.03
2019-06-25T22:19:43.068Z,17.13
2019-06-25T22:22:19.692Z,17.93
2019-06-25T22:24:50.311Z,18.87
2019-06-25T22:27:23.277Z,17.10
2019-06-25T22:29:55.910Z,16.60
2019-06-25T22:32:28.147Z,18.10
2019-06-25T22:35:00.864Z,18.10
2019-06-25T22:37:33.381Z,18.10
2019-06-25T22:40:05.099Z,17.83
2019-06-25T22:42:38.000Z,17.50
2019-06-25T22:45:11.112Z,18.00
2019-06-25T22:47:43.338Z,18.30
2019-06-25T22:50:17.243Z,18.17
2019-06-25T22:52:49.733Z,18.00
2019-06-25T22:55:22.439Z,17.50
2019-06-25T22:57:54.747Z,18.30
2019-06-25T23:00:27.579Z,17.87
2019-06-25T23:02:59.659Z,18.10
2019-06-25T23:05:31.917Z,19.53
2019-06-25T23:08:03.901Z,17.00
2019-06-25T23:10:36.547Z,16.60
2019-06-25T23:13:09.017Z,17.63
2019-06-25T23:15:42.146Z,17.40
2019-06-25T23:18:15.106Z,18.27
2019-06-25T23:20:47.752Z,18.10
2019-06-25T23:23:20.718Z,17.57
2019-06-25T23:25:53.305Z,17.03
2019-06-25T23:28:26.308Z,17.60
2019-06-25T23:30:58.138Z,17.57
2019-06-25T23:33:30.943Z,17.20
2019-06-25T23:36:03.215Z,17.80
2019-06-25T23:38:35.463Z,17.00
2019-06-25T23:41:07.578Z,17.40
2019-06-25T23:43:39.582Z,16.90
2019-06-25T23:46:12.232Z,18.00
2019-06-25T23:48:44.508Z,17.70
2019-06-25T23:51:17.510Z,17.47
2019-06-25T23:53:49.759Z,16.90
2019-06-25T23:56:22.467Z,18.00
2019-06-25T23:58:55.486Z,16.80
